createdAt,value
2022-11-14T00:00:24.100Z,7.12
2022-11-14T00:02:50.688Z,7.14
2022-11-14T00:05:17.572Z,7.13
2022-11-14T00:07:44.735Z,7.14
2022-11-14T00:10:11.534Z,7.13
2022-11-14T00:12:38.202Z,7.16
2022-11-14T00:15:05.357Z,7.18
2022-11-14T00:17:31.876Z,7.21
2022-11-14T00:19:58.487Z,7.22
2022-11-14T00:22:25.064Z,7.20
2022-11-14T00:24:51.553Z,7.22
2022-11-14T00:27:18.226Z,7.23
2022-11-14T00:29:44.750Z,7.22
2022-11-14T00:32:11.401Z,7.25
2022-11-14T00:34:37.953Z,7.27
2022-11-14T00:37:04.594Z,7.29
2022-11-14T00:39:31.225Z,7.27
2022-11-14T00:41:57.794Z,7.27
2022-11-14T00:44:24.380Z,7.26
2022-11-14T00:46:50.918Z,7.23
2022-11-14T00:49:17.447Z,7.26
2022-11-14T00:51:43.925Z,7.28
2022-11-14T00:54:10.451Z,7.31
2022-11-14T00:56:37.051Z,7.32
2022-11-14T00:59:03.621Z,7.33
2022-11-14T01:01:30.149Z,7.38
2022-11-14T01:03:56.691Z,7.41
2022-11-14T01:06:23.246Z,7.46
2022-11-14T01:08:53.095Z,7.50
2022-11-14T01:11:21.644Z,7.54
2022-11-14T01:13:48.230Z,7.53
2022-11-14T01:16:14.935Z,7.51
2022-11-14T01:18:42.051Z,7.51
2022-11-14T01:21:11.204Z,7.53
2022-11-14T01:23:38.349Z,7.53
2022-11-14T01:26:08.596Z,7.50
2022-11-14T01:28:35.537Z,7.50
2022-11-14T01:31:09.310Z,7.49
2022-11-14T01:33:35.960Z,7.52
2022-11-14T01:36:02.508Z,7.53
2022-11-14T01:38:29.285Z,7.51
2022-11-14T01:40:56.027Z,7.51
2022-11-14T01:43:37.536Z,7.49
2022-11-14T01:46:10.830Z,7.50
2022-11-14T01:48:45.778Z,7.48
2022-11-14T01:51:15.389Z,7.45
2022-11-14T01:53:44.405Z,7.43
2022-11-14T01:56:15.135Z,7.43
2022-11-14T01:58:45.941Z,7.40
2022-11-14T02:01:13.392Z,7.40
2022-11-14T02:03:42.757Z,7.37
2022-11-14T02:06:13.512Z,7.36
2022-11-14T02:08:41.385Z,7.38
2022-11-14T02:11:10.987Z,7.33
2022-11-14T02:13:38.272Z,7.30
2022-11-14T02:16:06.179Z,7.30
2022-11-14T02:18:32.862Z,7.33
2022-11-14T02:20:59.409Z,7.34
2022-11-14T02:23:28.471Z,7.37
2022-11-14T02:25:55.346Z,7.36
2022-11-14T02:28:22.267Z,7.37
2022-11-14T02:30:49.300Z,7.39
2022-11-14T02:33:16.167Z,7.39
2022-11-14T02:35:42.819Z,7.37
2022-11-14T02:38:09.472Z,7.40
2022-11-14T02:40:36.003Z,7.41
2022-11-14T02:43:02.522Z,7.41
2022-11-14T02:45:29.079Z,7.41
2022-11-14T02:47:55.710Z,7.41
2022-11-14T02:50:22.387Z,7.40
2022-11-14T02:52:49.195Z,7.40
2022-11-14T02:55:15.887Z,7.37
2022-11-14T02:57:42.394Z,7.37
2022-11-14T03:00:14.561Z,7.38
2022-11-14T03:02:41.900Z,7.40
2022-11-14T03:05:08.764Z,7.38
2022-11-14T03:07:35.501Z,7.34
2022-11-14T03:10:02.299Z,7.31
2022-11-14T03:12:28.799Z,7.30
2022-11-14T03:14:55.312Z,7.31
2022-11-14T03:17:24.616Z,7.37
2022-11-14T03:19:51.309Z,7.37
2022-11-14T03:22:17.848Z,7.37
2022-11-14T03:24:44.486Z,7.35
2022-11-14T03:27:10.991Z,7.36
2022-11-14T03:29:37.507Z,7.39
2022-11-14T03:32:04.269Z,7.40
2022-11-14T03:34:30.788Z,7.40
2022-11-14T03:36:57.395Z,7.40
2022-11-14T03:39:23.931Z,7.43
2022-11-14T03:41:50.446Z,7.46
2022-11-14T03:44:16.960Z,7.51
2022-11-14T03:46:43.530Z,7.54
2022-11-14T03:49:10.150Z,7.55
2022-11-14T03:51:36.683Z,7.57
2022-11-14T03:54:03.337Z,7.57
2022-11-14T03:56:29.857Z,7.55
2022-11-14T03:58:56.441Z,7.57
2022-11-14T04:01:23.055Z,7.58
2022-11-14T04:03:49.624Z,7.61
2022-11-14T04:06:16.122Z,7.63
2022-11-14T04:08:42.676Z,7.61
2022-11-14T04:11:09.222Z,7.63
2022-11-14T04:13:35.848Z,7.63
2022-11-14T04:16:02.370Z,7.62
2022-11-14T04:18:29.250Z,7.59
2022-11-14T04:20:56.040Z,7.58
2022-11-14T04:23:22.594Z,7.59
2022-11-14T04:25:49.379Z,7.57
2022-11-14T04:28:16.108Z,7.58
2022-11-14T04:30:42.821Z,7.59
2022-11-14T04:33:09.402Z,7.61
2022-11-14T04:35:35.915Z,7.61
2022-11-14T04:38:03.466Z,7.59
2022-11-14T04:40:30.052Z,7.56
2022-11-14T04:42:56.629Z,7.58
2022-11-14T04:45:23.271Z,7.58
2022-11-14T04:47:49.875Z,7.60
2022-11-14T04:50:16.551Z,7.59
2022-11-14T04:52:43.194Z,7.59
2022-11-14T04:55:10.291Z,7.59
2022-11-14T04:57:36.813Z,7.60
2022-11-14T05:00:04.995Z,7.59
2022-11-14T05:02:32.852Z,7.60
2022-11-14T05:04:59.389Z,7.62
2022-11-14T05:07:25.952Z,7.64
2022-11-14T05:09:52.559Z,7.64
2022-11-14T05:12:19.082Z,7.61
2022-11-14T05:14:45.581Z,7.62
2022-11-14T05:17:12.117Z,7.62
2022-11-14T05:19:38.647Z,7.61
2022-11-14T05:22:05.144Z,7.59
2022-11-14T05:24:31.837Z,7.54
2022-11-14T05:26:59.025Z,7.49
2022-11-14T05:29:25.546Z,7.47
2022-11-14T05:31:52.087Z,7.48
2022-11-14T05:34:18.658Z,7.52
2022-11-14T05:36:45.191Z,7.53
2022-11-14T05:39:11.699Z,7.51
2022-11-14T05:41:38.269Z,7.49
2022-11-14T05:44:05.117Z,7.45
2022-11-14T05:46:31.685Z,7.42
2022-11-14T05:48:58.255Z,7.41
2022-11-14T05:51:24.752Z,7.43
2022-11-14T05:53:51.270Z,7.47
2022-11-14T05:56:17.932Z,7.50
2022-11-14T05:58:44.486Z,7.66
2022-11-14T06:01:13.351Z,8.27
2022-11-14T06:03:42.320Z,8.75
2022-11-14T06:06:11.514Z,9.17
2022-11-14T06:08:38.469Z,9.23
2022-11-14T06:11:13.812Z,9.00
2022-11-14T06:13:40.751Z,8.74
2022-11-14T06:16:11.075Z,8.52
2022-11-14T06:18:37.927Z,8.35
2022-11-14T06:21:16.408Z,8.20
2022-11-14T06:23:43.934Z,8.06
2022-11-14T06:26:23.888Z,7.93
2022-11-14T06:28:51.641Z,7.89
2022-11-14T06:31:20.055Z,7.82
2022-11-14T06:33:47.363Z,7.75
2022-11-14T06:36:14.392Z,7.70
2022-11-14T06:38:42.251Z,7.70
2022-11-14T06:41:14.628Z,7.68
2022-11-14T06:43:43.379Z,7.71
2022-11-14T06:46:12.286Z,7.74
2022-11-14T06:48:39.450Z,7.75
2022-11-14T06:51:07.853Z,7.74
2022-11-14T06:53:36.331Z,7.75
2022-11-14T06:56:08.958Z,7.73
2022-11-14T06:58:39.033Z,7.69
2022-11-14T07:01:14.015Z,7.63
2022-11-14T07:03:41.516Z,7.61
2022-11-14T07:06:09.517Z,7.65
2022-11-14T07:08:36.175Z,7.84
2022-11-14T07:11:08.160Z,7.88
2022-11-14T07:13:35.838Z,7.90
2022-11-14T07:16:03.292Z,7.84
2022-11-14T07:18:32.204Z,7.77
2022-11-14T07:21:00.462Z,7.73
2022-11-14T07:23:27.061Z,7.70
2022-11-14T07:25:53.952Z,7.69
2022-11-14T07:28:20.575Z,7.69
2022-11-14T07:30:47.503Z,7.68
2022-11-14T07:33:14.178Z,7.69
2022-11-14T07:35:40.714Z,7.70
2022-11-14T07:38:07.377Z,7.72
2022-11-14T07:40:33.927Z,7.78
2022-11-14T07:43:01.280Z,7.83
2022-11-14T07:45:28.988Z,7.86
2022-11-14T07:47:57.354Z,7.87
2022-11-14T07:50:24.956Z,7.85
2022-11-14T07:52:55.480Z,7.86
2022-11-14T07:55:22.204Z,7.87
2022-11-14T07:57:52.899Z,7.88
2022-11-14T08:00:19.526Z,7.86
2022-11-14T08:02:46.609Z,7.85
2022-11-14T08:05:13.212Z,7.87
2022-11-14T08:07:39.735Z,7.92
2022-11-14T08:10:06.919Z,7.99
2022-11-14T08:12:33.435Z,8.06
2022-11-14T08:14:59.949Z,8.09
2022-11-14T08:17:26.509Z,8.13
2022-11-14T08:19:53.017Z,8.18
2022-11-14T08:22:19.516Z,8.22
2022-11-14T08:24:46.048Z,8.23
2022-11-14T08:27:12.560Z,8.21
2022-11-14T08:29:39.213Z,8.24
2022-11-14T08:32:05.801Z,8.24
2022-11-14T08:34:32.413Z,8.23
2022-11-14T08:36:59.171Z,8.22
2022-11-14T08:39:25.688Z,8.21
2022-11-14T08:41:52.218Z,8.21
2022-11-14T08:44:18.751Z,8.22
2022-11-14T08:46:45.268Z,8.26
2022-11-14T08:49:11.852Z,8.31
2022-11-14T08:51:38.493Z,8.34
2022-11-14T08:54:05.090Z,8.36
2022-11-14T08:56:31.610Z,8.38
2022-11-14T08:58:58.203Z,8.40
2022-11-14T09:01:24.736Z,8.46
2022-11-14T09:03:54.193Z,8.49
2022-11-14T09:06:25.086Z,8.53
2022-11-14T09:08:51.619Z,8.56
2022-11-14T09:11:19.378Z,8.57
2022-11-14T09:13:46.230Z,8.63
2022-11-14T09:16:12.766Z,8.63
2022-11-14T09:18:39.351Z,8.63
2022-11-14T09:21:08.581Z,8.62
2022-11-14T09:23:35.735Z,8.64
2022-11-14T09:26:09.852Z,8.68
2022-11-14T09:28:36.870Z,8.73
2022-11-14T09:31:06.607Z,8.75
2022-11-14T09:33:34.123Z,8.75
2022-11-14T09:36:05.837Z,8.77
2022-11-14T09:38:38.044Z,8.79
2022-11-14T09:41:25.127Z,8.79
2022-11-14T09:44:10.263Z,8.85
2022-11-14T09:46:50.128Z,8.92
2022-11-14T09:49:41.687Z,8.95
2022-11-14T09:52:26.428Z,8.98
2022-11-14T09:54:59.307Z,9.00
2022-11-14T09:57:27.307Z,9.05
2022-11-14T09:59:55.893Z,9.07
2022-11-14T10:02:52.651Z,9.07
2022-11-14T10:05:56.522Z,9.09
2022-11-14T10:08:44.988Z,9.10
2022-11-14T10:11:34.881Z,9.08
2022-11-14T10:14:15.630Z,9.12
2022-11-14T10:17:09.279Z,9.14
2022-11-14T10:19:58.518Z,9.19
2022-11-14T10:22:49.437Z,9.20
2022-11-14T10:25:47.266Z,9.18
2022-11-14T10:28:33.753Z,9.22
2022-11-14T10:31:41.939Z,9.22
2022-11-14T10:34:13.563Z,9.23
2022-11-14T10:36:47.398Z,9.21
2022-11-14T10:39:53.897Z,9.15
2022-11-14T10:42:30.721Z,9.18
2022-11-14T10:45:15.756Z,9.20
2022-11-14T10:48:00.607Z,9.25
2022-11-14T10:50:58.475Z,9.27
2022-11-14T10:53:43.662Z,9.30
2022-11-14T10:56:15.271Z,9.36
2022-11-14T10:58:49.028Z,9.35
2022-11-14T11:01:36.777Z,9.32
2022-11-14T11:04:29.476Z,9.34
2022-11-14T11:07:36.201Z,9.37
2022-11-14T11:10:22.522Z,9.34
2022-11-14T11:12:52.640Z,9.26
2022-11-14T11:15:24.933Z,9.20
2022-11-14T11:17:56.737Z,9.16
2022-11-14T11:20:26.666Z,9.10
2022-11-14T11:23:17.257Z,9.06
2022-11-14T11:25:43.991Z,8.99
2022-11-14T11:28:17.117Z,8.96
2022-11-14T11:30:58.202Z,8.94
2022-11-14T11:33:33.284Z,8.93
2022-11-14T11:36:04.586Z,8.95
2022-11-14T11:38:33.505Z,8.99
2022-11-14T11:44:16.740Z,9.10
2022-11-14T11:47:01.023Z,9.10
2022-11-14T11:49:30.580Z,9.10
2022-11-14T11:52:04.846Z,9.01
2022-11-14T11:54:46.296Z,8.96
2022-11-14T11:57:21.412Z,8.90
2022-11-14T11:59:59.364Z,8.82
2022-11-14T12:02:27.239Z,8.77
2022-11-14T12:04:56.934Z,8.79
2022-11-14T12:07:40.825Z,8.75
2022-11-14T12:10:16.137Z,8.75
2022-11-14T12:12:45.352Z,8.70
2022-11-14T12:15:29.481Z,8.63
2022-11-14T12:18:12.462Z,8.59
2022-11-14T12:20:44.374Z,8.54
2022-11-14T12:23:22.506Z,8.59
2022-11-14T12:25:59.473Z,8.61
2022-11-14T12:28:59.470Z,8.71
2022-11-14T12:31:31.626Z,8.80
2022-11-14T12:34:00.732Z,8.84
2022-11-14T12:36:33.616Z,8.87
2022-11-14T12:39:02.073Z,8.91
2022-11-14T12:41:32.532Z,8.95
2022-11-14T12:44:29.885Z,8.97
2022-11-14T12:47:05.516Z,8.97
2022-11-14T12:49:47.263Z,8.96
2022-11-14T12:52:44.545Z,8.94
2022-11-14T12:55:26.457Z,8.94
2022-11-14T12:58:12.580Z,8.91
2022-11-14T13:00:45.179Z,8.87
2022-11-14T13:03:30.814Z,8.81
2022-11-14T13:06:03.299Z,8.85
2022-11-14T13:08:39.219Z,8.91
2022-11-14T13:11:53.922Z,8.96
2022-11-14T13:14:39.869Z,9.10
2022-11-14T13:17:29.261Z,9.11
2022-11-14T13:20:15.607Z,9.16
2022-11-14T13:22:44.566Z,9.18
2022-11-14T13:25:11.070Z,9.24
2022-11-14T13:28:05.952Z,9.31
2022-11-14T13:31:12.538Z,9.45
2022-11-14T13:33:51.998Z,9.56
2022-11-14T13:36:35.148Z,9.62
2022-11-14T13:39:30.057Z,9.65
2022-11-14T13:41:56.508Z,9.70
2022-11-14T13:44:38.262Z,9.74
2022-11-14T13:47:23.959Z,9.80
2022-11-14T13:49:59.373Z,9.87
2022-11-14T13:52:29.501Z,9.95
2022-11-14T13:54:56.153Z,10.02
2022-11-14T13:57:28.269Z,10.05
2022-11-14T13:59:59.148Z,10.00
2022-11-14T14:02:44.371Z,10.04
2022-11-14T14:05:32.779Z,10.07
2022-11-14T14:08:20.836Z,10.06
2022-11-14T14:11:10.090Z,10.04
2022-11-14T14:13:55.786Z,10.05
2022-11-14T14:16:40.355Z,10.06
2022-11-14T14:19:26.476Z,10.10
2022-11-14T14:22:04.410Z,10.08
2022-11-14T14:24:40.281Z,10.05
2022-11-14T14:27:32.729Z,10.04
2022-11-14T14:29:59.276Z,10.00
2022-11-14T14:32:26.016Z,10.08
2022-11-14T14:34:56.991Z,10.10
2022-11-14T14:37:26.421Z,10.15
2022-11-14T14:40:01.342Z,10.17
2022-11-14T14:42:35.260Z,10.21
2022-11-14T14:45:03.549Z,10.24
2022-11-14T14:47:43.401Z,10.25
2022-11-14T14:50:20.073Z,10.29
2022-11-14T14:52:47.203Z,10.29
2022-11-14T14:55:28.818Z,10.22
2022-11-14T14:57:55.458Z,10.20
2022-11-14T15:00:26.641Z,10.20
2022-11-14T15:02:57.042Z,10.19
2022-11-14T15:05:29.544Z,10.20
2022-11-14T15:07:59.273Z,10.23
2022-11-14T15:10:29.780Z,10.23
2022-11-14T15:12:58.063Z,10.24
2022-11-14T15:15:28.540Z,10.25
2022-11-14T15:17:58.629Z,10.23
2022-11-14T15:20:28.275Z,10.23
2022-11-14T15:23:11.350Z,10.22
2022-11-14T15:25:38.040Z,10.24
2022-11-14T15:28:13.578Z,10.23
2022-11-14T15:30:40.154Z,10.25
2022-11-14T15:33:27.356Z,10.20
2022-11-14T15:36:11.075Z,10.17
2022-11-14T15:38:43.905Z,10.19
2022-11-14T15:41:24.299Z,10.15
2022-11-14T15:43:53.360Z,10.15
2022-11-14T15:46:36.085Z,10.14
2022-11-14T15:49:18.550Z,10.12
2022-11-14T15:51:48.606Z,10.12
2022-11-14T15:54:30.482Z,10.07
2022-11-14T15:57:00.206Z,10.06
2022-11-14T15:59:29.257Z,10.06
2022-11-14T16:02:04.472Z,10.00
2022-11-14T16:04:34.149Z,9.96
2022-11-14T16:07:00.794Z,9.93
2022-11-14T16:09:27.417Z,9.91
2022-11-14T16:11:53.920Z,9.89
2022-11-14T16:14:20.449Z,9.83
2022-11-14T16:16:47.035Z,9.76
2022-11-14T16:19:15.571Z,9.70
2022-11-14T16:21:42.725Z,9.66
2022-11-14T16:24:15.796Z,9.61
2022-11-14T16:26:42.369Z,9.58
2022-11-14T16:29:08.981Z,9.58
2022-11-14T16:31:36.577Z,9.57
2022-11-14T16:34:03.114Z,9.59
2022-11-14T16:36:29.653Z,9.57
2022-11-14T16:39:01.765Z,9.57
2022-11-14T16:41:28.800Z,9.61
2022-11-14T16:43:56.576Z,9.63
2022-11-14T16:46:24.391Z,9.64
2022-11-14T16:48:51.165Z,9.64
2022-11-14T16:51:46.136Z,9.64
2022-11-14T16:54:04.202Z,9.65
2022-11-14T16:56:31.438Z,9.64
2022-11-14T16:58:57.991Z,9.66
2022-11-14T17:01:24.790Z,9.67
2022-11-14T17:03:52.279Z,9.66
2022-11-14T17:06:18.969Z,9.68
2022-11-14T17:08:45.579Z,9.69
2022-11-14T17:11:12.139Z,9.71
2022-11-14T17:13:38.665Z,9.72
2022-11-14T17:16:05.568Z,9.76
2022-11-14T17:18:38.164Z,9.77
2022-11-14T17:21:07.541Z,9.76
2022-11-14T17:23:34.098Z,9.77
2022-11-14T17:26:09.928Z,9.75
2022-11-14T17:28:38.442Z,9.75
2022-11-14T17:31:08.887Z,9.74
2022-11-14T17:33:36.478Z,9.70
2022-11-14T17:36:05.716Z,9.65
2022-11-14T17:38:33.759Z,9.61
2022-11-14T17:41:00.436Z,9.56
2022-11-14T17:43:27.098Z,9.54
2022-11-14T17:45:55.668Z,9.55
2022-11-14T17:48:22.530Z,9.53
2022-11-14T17:50:49.196Z,9.53
2022-11-14T17:53:15.778Z,9.49
2022-11-14T17:55:42.379Z,9.48
2022-11-14T17:58:09.027Z,9.46
2022-11-14T18:00:36.026Z,9.46
2022-11-14T18:03:02.550Z,9.48
2022-11-14T18:05:29.155Z,9.51
2022-11-14T18:07:55.714Z,9.51
2022-11-14T18:10:22.208Z,9.53
2022-11-14T18:12:48.695Z,9.55
2022-11-14T18:15:15.388Z,9.55
2022-11-14T18:17:42.030Z,9.53
2022-11-14T18:20:09.175Z,9.53
2022-11-14T18:22:35.705Z,9.54
2022-11-14T18:25:07.478Z,9.57
2022-11-14T18:27:34.685Z,9.59
2022-11-14T18:30:13.802Z,9.59
2022-11-14T18:32:47.784Z,9.58
2022-11-14T18:35:14.268Z,9.57
2022-11-14T18:37:40.793Z,9.57
2022-11-14T18:40:14.781Z,9.56
2022-11-14T18:42:42.604Z,9.56
2022-11-14T18:45:09.512Z,9.56
2022-11-14T18:47:36.098Z,9.58
2022-11-14T18:50:03.909Z,9.62
2022-11-14T18:52:30.521Z,9.64
2022-11-14T18:54:57.013Z,9.65
2022-11-14T18:57:23.633Z,9.62
2022-11-14T18:59:50.253Z,9.63
2022-11-14T19:02:16.818Z,9.60
2022-11-14T19:04:43.455Z,9.59
2022-11-14T19:07:10.235Z,9.60
2022-11-14T19:09:37.774Z,9.62
2022-11-14T19:12:21.854Z,9.65
2022-11-14T19:14:53.115Z,9.66
2022-11-14T19:17:22.894Z,9.65
2022-11-14T19:19:50.361Z,9.67
2022-11-14T19:22:17.278Z,9.66
2022-11-14T19:24:46.589Z,9.68
2022-11-14T19:27:14.152Z,9.71
2022-11-14T19:29:40.875Z,9.73
2022-11-14T19:32:07.754Z,9.74
2022-11-14T19:34:34.401Z,9.77
2022-11-14T19:37:01.435Z,9.80
2022-11-14T19:39:28.562Z,9.83
2022-11-14T19:41:55.047Z,9.85
2022-11-14T19:44:21.577Z,9.87
2022-11-14T19:46:48.439Z,9.88
2022-11-14T19:49:15.282Z,9.91
2022-11-14T19:51:42.029Z,9.90
2022-11-14T19:54:10.054Z,9.92
2022-11-14T19:56:36.745Z,9.93
2022-11-14T19:59:09.662Z,9.93
2022-11-14T20:01:39.367Z,9.96
2022-11-14T20:04:07.370Z,9.98
2022-11-14T20:06:36.201Z,9.98
2022-11-14T20:09:06.100Z,10.00
2022-11-14T20:11:32.666Z,10.02
2022-11-14T20:13:59.938Z,9.98
2022-11-14T20:16:28.535Z,9.99
2022-11-14T20:18:59.072Z,9.98
2022-11-14T20:21:28.156Z,9.97
2022-11-14T20:23:54.755Z,9.97
2022-11-14T20:26:22.264Z,9.98
2022-11-14T20:28:52.065Z,9.99
2022-11-14T20:31:21.178Z,10.02
2022-11-14T20:33:49.155Z,9.99
2022-11-14T20:36:19.056Z,9.99
2022-11-14T20:38:45.805Z,9.95
2022-11-14T20:41:12.637Z,9.96
2022-11-14T20:43:39.957Z,9.92
2022-11-14T20:46:12.399Z,9.93
2022-11-14T20:48:39.395Z,9.88
2022-11-14T20:51:08.248Z,9.89
2022-11-14T20:53:34.879Z,9.89
2022-11-14T20:56:01.788Z,9.87
2022-11-14T20:58:28.614Z,9.89
2022-11-14T21:00:55.469Z,9.89
2022-11-14T21:03:22.442Z,9.86
2022-11-14T21:05:49.228Z,9.87
2022-11-14T21:08:16.885Z,9.88
2022-11-14T21:10:47.085Z,9.90
2022-11-14T21:13:36.351Z,9.92
2022-11-14T21:16:05.829Z,9.97
2022-11-14T21:18:32.781Z,10.02
2022-11-14T21:21:04.382Z,10.02
2022-11-14T21:23:31.487Z,10.05
2022-11-14T21:26:06.824Z,10.05
2022-11-14T21:28:35.029Z,10.07
2022-11-14T21:31:01.659Z,10.06
2022-11-14T21:33:30.868Z,10.07
2022-11-14T21:36:03.891Z,10.12
2022-11-14T21:38:38.541Z,10.15
2022-11-14T21:41:06.656Z,10.19
2022-11-14T21:43:34.129Z,10.23
2022-11-14T21:46:02.890Z,10.24
2022-11-14T21:48:37.483Z,10.22
2022-11-14T21:51:13.520Z,10.24
2022-11-14T21:53:41.196Z,10.28
2022-11-14T21:56:11.878Z,10.28
2022-11-14T21:58:38.747Z,10.33
2022-11-14T22:01:14.577Z,10.34
2022-11-14T22:04:00.931Z,10.40
2022-11-14T22:06:28.574Z,10.47
2022-11-14T22:08:55.922Z,10.63
2022-11-14T22:11:23.510Z,10.78
2022-11-14T22:13:50.415Z,10.95
2022-11-14T22:16:19.777Z,11.08
2022-11-14T22:18:47.037Z,11.18
2022-11-14T22:21:13.871Z,11.26
2022-11-14T22:23:40.366Z,11.33
2022-11-14T22:26:07.110Z,11.39
2022-11-14T22:28:33.753Z,11.45
2022-11-14T22:31:15.444Z,11.49
2022-11-14T22:33:46.665Z,11.52
2022-11-14T22:36:14.816Z,11.56
2022-11-14T22:38:42.330Z,11.58
2022-11-14T22:41:31.882Z,11.53
2022-11-14T22:44:00.054Z,11.54
2022-11-14T22:46:27.531Z,11.57
2022-11-14T22:48:54.606Z,11.66
2022-11-14T22:51:27.557Z,11.70
2022-11-14T22:53:56.344Z,11.77
2022-11-14T22:56:26.244Z,11.83
2022-11-14T22:58:52.822Z,11.85
2022-11-14T23:01:21.934Z,11.89
2022-11-14T23:03:53.458Z,11.92
2022-11-14T23:06:20.094Z,11.96
2022-11-14T23:08:46.844Z,12.00
2022-11-14T23:11:15.872Z,12.01
2022-11-14T23:13:44.839Z,12.02
2022-11-14T23:16:17.198Z,12.06
2022-11-14T23:18:44.383Z,12.10
2022-11-14T23:21:15.066Z,12.10
2022-11-14T23:23:42.287Z,12.14
2022-11-14T23:26:13.995Z,12.16
2022-11-14T23:28:40.782Z,12.18
2022-11-14T23:31:08.813Z,12.21
2022-11-14T23:33:35.483Z,12.24
2022-11-14T23:36:02.264Z,12.26
2022-11-14T23:38:32.034Z,12.30
2022-11-14T23:41:01.139Z,12.35
2022-11-14T23:43:29.546Z,12.41
2022-11-14T23:45:57.398Z,12.45
2022-11-14T23:48:24.504Z,12.50
2022-11-14T23:50:52.914Z,12.59
2022-11-14T23:53:20.104Z,12.68
2022-11-14T23:55:53.799Z,12.76
2022-11-14T23:58:21.802Z,12.83
